createdAt,value
2018-11-11T00:01:53.024Z,23.80
2018-11-11T00:04:23.141Z,24.60
2018-11-11T00:06:53.350Z,24.17
2018-11-11T00:09:38.347Z,26.10
2018-11-11T00:12:08.497Z,25.47
2018-11-11T00:14:38.677Z,23.10
2018-11-11T00:17:08.856Z,24.57
2018-11-11T00:19:38.986Z,24.40
2018-11-11T00:22:09.092Z,23.53
2018-11-11T00:24:39.214Z,24.03
2018-11-11T00:27:09.337Z,25.70
2018-11-11T00:29:39.485Z,24.67
2018-11-11T00:32:09.964Z,22.70
2018-11-11T00:34:40.116Z,25.40
2018-11-11T00:37:10.221Z,25.23
2018-11-11T00:39:40.444Z,26.43
2018-11-11T00:42:10.458Z,24.03
2018-11-11T00:44:40.594Z,26.67
2018-11-11T00:47:10.682Z,25.80
2018-11-11T00:49:40.790Z,26.27
2018-11-11T00:52:11.006Z,27.03
2018-11-11T00:54:41.136Z,27.80
2018-11-11T00:57:11.291Z,28.47
2018-11-11T00:59:41.456Z,28.77
2018-11-11T01:02:12.112Z,29.07
2018-11-11T01:04:42.464Z,27.30
2018-11-11T01:07:12.644Z,27.30
2018-11-11T01:09:43.765Z,26.80
2018-11-11T01:12:15.654Z,26.83
2018-11-11T01:14:45.800Z,27.17
2018-11-11T01:17:16.012Z,27.23
2018-11-11T01:19:46.101Z,26.57
2018-11-11T01:22:16.352Z,27.90
2018-11-11T01:24:46.500Z,27.87
2018-11-11T01:27:16.630Z,27.00
2018-11-11T01:29:47.457Z,28.03
2018-11-11T01:32:17.617Z,28.10
2018-11-11T01:34:47.770Z,27.23
2018-11-11T01:37:17.898Z,27.33
2018-11-11T01:39:48.051Z,26.10
2018-11-11T01:42:23.326Z,29.57
2018-11-11T01:44:53.504Z,26.50
2018-11-11T01:47:23.881Z,27.77
2018-11-11T01:49:53.973Z,28.83
2018-11-11T01:52:24.123Z,30.03
2018-11-11T01:54:54.782Z,29.57
2018-11-11T01:57:25.024Z,29.83
2018-11-11T01:59:56.763Z,28.40
2018-11-11T02:02:26.942Z,30.07
2018-11-11T02:04:57.150Z,29.40
2018-11-11T02:07:27.293Z,28.47
2018-11-11T02:09:57.496Z,28.73
2018-11-11T02:12:27.582Z,29.30
2018-11-11T02:14:57.700Z,28.90
2018-11-11T02:17:27.874Z,27.73
2018-11-11T02:19:58.797Z,30.37
2018-11-11T02:22:30.271Z,28.27
2018-11-11T02:25:00.430Z,27.93
2018-11-11T02:27:30.650Z,28.73
2018-11-11T02:30:00.752Z,28.30
2018-11-11T02:32:30.959Z,28.00
2018-11-11T02:35:01.203Z,27.90
2018-11-11T02:37:31.334Z,27.67
2018-11-11T02:40:01.459Z,28.97
2018-11-11T02:42:31.863Z,27.37
2018-11-11T02:45:01.968Z,30.70
2018-11-11T02:47:32.117Z,27.93
2018-11-11T02:50:02.295Z,29.40
2018-11-11T02:52:32.445Z,28.80
2018-11-11T02:55:02.567Z,29.80
2018-11-11T02:57:32.727Z,28.63
2018-11-11T03:00:03.091Z,30.50
2018-11-11T03:02:33.228Z,31.50
2018-11-11T03:05:03.316Z,30.77
2018-11-11T03:07:33.479Z,31.37
2018-11-11T03:10:03.679Z,32.67
2018-11-11T03:12:35.805Z,30.57
2018-11-11T03:15:06.763Z,32.03
2018-11-11T03:17:37.193Z,30.37
2018-11-11T03:20:08.433Z,33.37
2018-11-11T03:22:38.568Z,33.63
2018-11-11T03:25:10.741Z,32.80
2018-11-11T03:27:41.122Z,34.63
2018-11-11T03:30:13.210Z,36.00
2018-11-11T03:32:43.618Z,34.67
2018-11-11T03:35:14.396Z,33.47
2018-11-11T03:37:45.377Z,36.23
2018-11-11T03:40:19.156Z,36.40
2018-11-11T03:42:50.041Z,36.40
2018-11-11T03:45:21.095Z,37.40
2018-11-11T03:47:52.237Z,36.17
2018-11-11T03:50:22.402Z,36.93
2018-11-11T03:52:53.368Z,37.13
2018-11-11T03:55:23.559Z,37.00
2018-11-11T03:57:53.710Z,36.63
2018-11-11T04:00:23.829Z,39.13
2018-11-11T04:02:53.903Z,38.20
2018-11-11T04:05:24.040Z,38.40
2018-11-11T04:07:54.139Z,39.60
2018-11-11T04:10:24.259Z,38.73
2018-11-11T04:12:54.389Z,37.83
2018-11-11T04:15:24.479Z,37.97
2018-11-11T04:17:54.596Z,37.17
2018-11-11T04:20:24.739Z,39.77
2018-11-11T04:22:54.870Z,37.37
2018-11-11T04:25:25.728Z,37.43
2018-11-11T04:27:55.880Z,37.50
2018-11-11T04:30:26.019Z,36.60
2018-11-11T04:32:56.127Z,36.83
2018-11-11T04:35:26.255Z,37.23
2018-11-11T04:37:56.479Z,37.53
2018-11-11T04:40:26.574Z,36.63
2018-11-11T04:42:56.698Z,37.83
2018-11-11T04:45:26.894Z,35.33
2018-11-11T04:47:57.546Z,36.53
2018-11-11T04:50:27.680Z,36.63
2018-11-11T04:52:57.772Z,36.17
2018-11-11T04:55:27.903Z,34.47
2018-11-11T04:57:58.052Z,34.30
2018-11-11T05:00:28.251Z,35.33
2018-11-11T05:02:58.401Z,35.20
2018-11-11T05:05:28.568Z,33.73
2018-11-11T05:07:58.728Z,34.53
2018-11-11T05:10:28.954Z,34.60
2018-11-11T05:12:59.357Z,31.97
2018-11-11T05:15:29.578Z,35.00
2018-11-11T05:17:59.658Z,32.63
2018-11-11T05:20:29.893Z,33.70
2018-11-11T05:23:00.041Z,34.07
2018-11-11T05:25:30.171Z,31.47
2018-11-11T05:28:00.782Z,32.43
2018-11-11T05:30:30.946Z,34.87
2018-11-11T05:33:01.395Z,33.77
2018-11-11T05:35:31.883Z,36.20
2018-11-11T05:38:02.764Z,33.73
2018-11-11T05:40:32.900Z,32.60
2018-11-11T05:43:03.988Z,31.33
2018-11-11T05:45:34.145Z,34.80
2018-11-11T05:48:04.512Z,33.87
2018-11-11T05:50:34.624Z,33.17
2018-11-11T05:53:04.902Z,33.30
2018-11-11T05:55:35.040Z,34.80
2018-11-11T05:58:05.199Z,32.47
2018-11-11T06:00:35.510Z,35.10
2018-11-11T06:03:05.708Z,32.13
2018-11-11T06:05:35.990Z,31.67
2018-11-11T06:08:06.218Z,33.77
2018-11-11T06:10:36.393Z,33.03
2018-11-11T06:13:06.575Z,32.87
2018-11-11T06:15:36.716Z,34.17
2018-11-11T06:18:06.970Z,31.00
2018-11-11T06:20:37.112Z,33.00
2018-11-11T06:23:07.312Z,32.47
2018-11-11T06:25:37.426Z,32.50
2018-11-11T06:28:07.580Z,31.63
2018-11-11T06:30:37.674Z,31.80
2018-11-11T06:33:07.760Z,31.37
2018-11-11T06:35:37.868Z,32.30
2018-11-11T06:38:08.028Z,32.13
2018-11-11T06:40:39.029Z,33.13
2018-11-11T06:43:10.320Z,31.33
2018-11-11T06:45:40.454Z,32.20
2018-11-11T06:48:10.717Z,30.27
2018-11-11T06:50:40.888Z,31.53
2018-11-11T06:53:11.811Z,32.47
2018-11-11T06:55:42.118Z,33.93
2018-11-11T06:58:12.350Z,31.17
2018-11-11T07:00:42.393Z,30.80
2018-11-11T07:03:29.155Z,31.90
2018-11-11T07:05:59.273Z,33.07
2018-11-11T07:08:29.432Z,31.47
2018-11-11T07:10:59.651Z,31.90
2018-11-11T07:13:29.795Z,36.30
2018-11-11T07:16:00.982Z,30.40
2018-11-11T07:18:32.765Z,30.43
2018-11-11T07:21:03.076Z,27.93
2018-11-11T07:23:33.202Z,28.50
2018-11-11T07:26:03.829Z,28.37
2018-11-11T07:28:34.654Z,29.17
2018-11-11T07:31:05.274Z,26.97
2018-11-11T07:33:35.469Z,25.20
2018-11-11T07:36:06.634Z,26.90
2018-11-11T07:38:36.929Z,23.53
2018-11-11T07:41:07.287Z,33.63
2018-11-11T07:43:38.034Z,33.13
2018-11-11T07:46:08.285Z,25.47
2018-11-11T07:48:38.438Z,44.50
2018-11-11T07:51:08.629Z,37.00
2018-11-11T07:53:38.894Z,26.97
2018-11-11T07:56:09.072Z,25.00
2018-11-11T07:58:39.279Z,24.43
2018-11-11T08:01:09.534Z,24.63
2018-11-11T08:03:39.726Z,22.60
2018-11-11T08:06:09.913Z,22.87
2018-11-11T08:08:40.101Z,21.40
2018-11-11T08:11:26.947Z,22.33
2018-11-11T08:13:57.121Z,23.10
2018-11-11T08:16:27.302Z,21.43
2018-11-11T08:18:57.490Z,22.20
2018-11-11T08:21:27.622Z,22.33
2018-11-11T08:23:58.421Z,21.00
2018-11-11T08:26:28.560Z,21.40
2018-11-11T08:28:58.714Z,21.20
2018-11-11T08:31:28.855Z,20.67
2018-11-11T08:33:58.962Z,20.67
2018-11-11T08:36:29.371Z,21.47
2018-11-11T08:38:59.845Z,20.30
2018-11-11T08:41:30.052Z,21.93
2018-11-11T08:44:00.164Z,22.97
2018-11-11T08:46:46.684Z,20.17
2018-11-11T08:49:16.793Z,20.23
2018-11-11T08:51:46.880Z,20.80
2018-11-11T08:54:17.249Z,18.53
2018-11-11T08:56:47.415Z,18.63
2018-11-11T08:59:17.694Z,19.23
2018-11-11T09:01:48.284Z,17.47
2018-11-11T09:04:19.204Z,16.30
2018-11-11T09:06:49.529Z,20.40
2018-11-11T09:09:19.714Z,17.67
2018-11-11T09:11:49.934Z,16.77
2018-11-11T09:14:20.257Z,21.73
2018-11-11T09:16:50.402Z,14.17
2018-11-11T09:19:20.614Z,20.53
2018-11-11T09:21:50.876Z,15.20
2018-11-11T09:24:21.057Z,13.30
2018-11-11T09:26:51.329Z,16.57
2018-11-11T09:29:21.550Z,14.93
2018-11-11T09:31:51.780Z,13.57
2018-11-11T09:34:21.922Z,13.40
2018-11-11T09:36:52.166Z,11.97
2018-11-11T09:39:22.391Z,12.40
2018-11-11T09:41:52.595Z,11.80
2018-11-11T09:44:22.826Z,13.97
2018-11-11T09:46:53.095Z,13.43
2018-11-11T09:49:23.268Z,12.93
2018-11-11T09:51:53.452Z,13.07
2018-11-11T09:54:23.596Z,12.73
2018-11-11T09:56:53.747Z,12.27
2018-11-11T09:59:23.899Z,12.57
2018-11-11T10:01:54.137Z,12.07
2018-11-11T10:04:28.298Z,13.10
2018-11-11T10:07:04.043Z,12.23
2018-11-11T10:09:55.242Z,10.63
2018-11-11T10:12:32.056Z,10.53
2018-11-11T10:15:06.872Z,11.00
2018-11-11T10:17:56.096Z,9.03
2018-11-11T10:20:44.359Z,9.00
2018-11-11T10:23:19.573Z,9.03
2018-11-11T10:26:09.853Z,9.50
2018-11-11T10:29:15.237Z,10.17
2018-11-11T10:31:50.470Z,11.13
2018-11-11T10:34:25.820Z,10.77
2018-11-11T10:37:02.868Z,11.73
2018-11-11T10:41:03.700Z,12.20
2018-11-11T10:43:37.909Z,13.33
2018-11-11T10:48:16.162Z,12.83
2018-11-11T10:50:50.394Z,10.47
2018-11-11T10:53:20.752Z,11.03
2018-11-11T10:55:50.993Z,11.30
2018-11-11T10:58:21.259Z,10.43
2018-11-11T11:00:56.680Z,10.77
2018-11-11T11:03:31.791Z,9.70
2018-11-11T11:06:02.639Z,9.13
2018-11-11T11:08:33.076Z,9.83
2018-11-11T11:11:03.362Z,9.23
2018-11-11T11:13:33.684Z,9.10
2018-11-11T11:16:03.869Z,9.07
2018-11-11T11:18:34.130Z,9.30
2018-11-11T11:21:04.566Z,8.53
2018-11-11T11:23:34.750Z,8.53
2018-11-11T11:26:24.193Z,9.87
2018-11-11T11:28:54.407Z,8.83
2018-11-11T11:31:46.103Z,8.73
2018-11-11T11:34:16.221Z,8.17
2018-11-11T11:36:46.385Z,7.50
2018-11-11T11:39:16.613Z,8.10
2018-11-11T11:41:46.811Z,8.47
2018-11-11T11:44:17.392Z,8.47
2018-11-11T11:46:47.504Z,8.70
2018-11-11T11:49:17.669Z,7.30
2018-11-11T11:51:47.926Z,7.27
2018-11-11T11:54:18.185Z,7.37
2018-11-11T11:56:48.421Z,7.50
2018-11-11T11:59:18.634Z,6.93
2018-11-11T12:01:49.490Z,7.80
2018-11-11T12:04:19.676Z,8.10
2018-11-11T12:06:49.870Z,6.87
2018-11-11T12:09:20.065Z,7.00
2018-11-11T12:11:50.317Z,7.40
2018-11-11T12:14:20.593Z,9.27
2018-11-11T12:16:50.831Z,7.87
2018-11-11T12:19:21.153Z,6.37
2018-11-11T12:21:51.422Z,6.83
2018-11-11T12:24:21.629Z,7.33
2018-11-11T12:26:51.844Z,7.23
2018-11-11T12:29:21.957Z,7.23
2018-11-11T12:31:52.242Z,7.67
2018-11-11T12:34:25.604Z,6.83
2018-11-11T12:36:55.823Z,6.87
2018-11-11T12:39:26.020Z,6.77
2018-11-11T12:41:56.692Z,7.33
2018-11-11T12:44:26.949Z,7.70
2018-11-11T12:46:57.932Z,7.90
2018-11-11T12:49:27.982Z,7.63
2018-11-11T12:51:58.938Z,7.93
2018-11-11T12:54:29.088Z,8.17
2018-11-11T12:56:59.326Z,8.33
2018-11-11T12:59:29.506Z,8.30
2018-11-11T13:02:00.470Z,8.43
2018-11-11T13:04:30.857Z,9.13
2018-11-11T13:07:01.827Z,9.07
2018-11-11T13:09:32.021Z,10.43
2018-11-11T13:12:05.898Z,11.47
2018-11-11T13:14:35.905Z,9.53
2018-11-11T13:17:06.237Z,9.50
2018-11-11T13:19:36.432Z,9.63
2018-11-11T13:22:06.639Z,9.67
2018-11-11T13:24:36.798Z,11.07
2018-11-11T13:27:07.510Z,9.93
2018-11-11T13:29:37.772Z,10.43
2018-11-11T13:32:08.068Z,9.83
2018-11-11T13:34:38.123Z,11.03
2018-11-11T13:37:08.368Z,11.13
2018-11-11T13:39:38.503Z,10.60
2018-11-11T13:42:08.796Z,11.63
2018-11-11T13:44:39.776Z,10.80
2018-11-11T13:47:09.871Z,10.50
2018-11-11T13:49:53.481Z,12.23
2018-11-11T13:52:23.713Z,11.60
2018-11-11T13:54:53.898Z,12.40
2018-11-11T13:57:24.122Z,12.10
2018-11-11T13:59:54.270Z,12.20
2018-11-11T14:02:24.522Z,11.83
2018-11-11T14:04:54.710Z,12.50
2018-11-11T14:07:24.958Z,13.43
2018-11-11T14:09:55.238Z,13.23
2018-11-11T14:12:26.097Z,14.40
2018-11-11T14:14:56.300Z,15.17
2018-11-11T14:17:26.532Z,14.03
2018-11-11T14:19:56.742Z,13.37
2018-11-11T14:22:26.909Z,16.20
2018-11-11T14:24:57.117Z,14.23
2018-11-11T14:27:27.208Z,14.47
2018-11-11T14:29:57.345Z,14.97
2018-11-11T14:32:27.873Z,15.50
2018-11-11T14:34:57.873Z,15.93
2018-11-11T14:37:28.086Z,16.47
2018-11-11T14:40:07.152Z,13.70
2018-11-11T14:42:37.408Z,12.83
2018-11-11T14:45:09.074Z,14.17
2018-11-11T14:47:39.887Z,16.40
2018-11-11T14:50:12.061Z,16.47
2018-11-11T14:52:42.918Z,14.77
2018-11-11T14:55:16.258Z,14.23
2018-11-11T14:57:46.526Z,18.73
2018-11-11T15:00:20.610Z,17.83
2018-11-11T15:03:01.648Z,17.50
2018-11-11T15:05:32.079Z,18.60
2018-11-11T15:08:02.384Z,18.03
2018-11-11T15:10:32.496Z,19.30
2018-11-11T15:13:02.931Z,20.50
2018-11-11T15:15:33.128Z,19.67
2018-11-11T15:18:03.556Z,21.67
2018-11-11T15:20:34.107Z,19.00
2018-11-11T15:23:04.216Z,19.67
2018-11-11T15:25:34.750Z,23.80
2018-11-11T15:28:05.530Z,21.83
2018-11-11T15:30:36.767Z,25.80
2018-11-11T15:33:07.352Z,28.13
2018-11-11T15:35:37.591Z,24.77
2018-11-11T15:38:07.869Z,19.80
2018-11-11T15:40:39.106Z,19.27
2018-11-11T15:43:09.418Z,19.37
2018-11-11T15:45:39.599Z,20.43
2018-11-11T15:48:10.109Z,20.80
2018-11-11T15:50:40.304Z,19.43
2018-11-11T15:53:10.588Z,18.87
2018-11-11T15:55:41.257Z,17.60
2018-11-11T15:58:11.443Z,21.27
2018-11-11T16:00:42.965Z,26.07
2018-11-11T16:03:13.164Z,27.30
2018-11-11T16:05:43.344Z,21.93
2018-11-11T16:08:13.513Z,24.10
2018-11-11T16:10:43.720Z,26.10
2018-11-11T16:13:13.931Z,25.87
2018-11-11T16:15:44.423Z,25.23
2018-11-11T16:18:15.259Z,22.30
2018-11-11T16:20:45.405Z,23.77
2018-11-11T16:23:15.537Z,25.80
2018-11-11T16:25:58.513Z,25.93
2018-11-11T16:28:34.979Z,27.50
2018-11-11T16:31:05.432Z,30.60
2018-11-11T16:33:36.272Z,58.30
2018-11-11T16:36:07.075Z,41.90
2018-11-11T16:38:37.484Z,30.73
2018-11-11T16:41:25.012Z,34.10
2018-11-11T16:43:58.797Z,28.67
2018-11-11T16:49:21.509Z,27.80
2018-11-11T16:51:51.769Z,23.97
2018-11-11T16:54:22.057Z,24.73
2018-11-11T16:56:52.316Z,24.27
2018-11-11T16:59:22.561Z,23.97
2018-11-11T17:01:52.703Z,22.13
2018-11-11T17:04:22.900Z,23.80
2018-11-11T17:06:53.006Z,22.73
2018-11-11T17:09:23.251Z,25.90
2018-11-11T17:11:53.383Z,23.70
2018-11-11T17:14:23.675Z,27.53
2018-11-11T17:16:53.846Z,27.03
2018-11-11T17:19:24.046Z,37.77
2018-11-11T17:21:55.066Z,32.60
2018-11-11T17:24:25.110Z,29.63
2018-11-11T17:26:55.249Z,26.50
2018-11-11T17:29:25.564Z,24.63
2018-11-11T17:31:55.790Z,26.17
2018-11-11T17:34:25.953Z,23.53
2018-11-11T17:36:56.133Z,22.10
2018-11-11T17:39:26.306Z,20.57
2018-11-11T17:41:56.542Z,22.70
2018-11-11T17:44:29.744Z,20.57
2018-11-11T17:46:59.929Z,22.27
2018-11-11T17:49:30.923Z,20.33
2018-11-11T17:52:01.843Z,22.30
2018-11-11T17:54:31.944Z,21.77
2018-11-11T17:57:02.190Z,22.63
2018-11-11T17:59:32.357Z,22.63
2018-11-11T18:02:02.586Z,19.87
2018-11-11T18:04:32.718Z,22.13
2018-11-11T18:07:02.911Z,21.27
2018-11-11T18:09:33.250Z,21.70
2018-11-11T18:12:03.710Z,22.13
2018-11-11T18:14:33.898Z,22.63
2018-11-11T18:17:04.179Z,22.07
2018-11-11T18:19:34.443Z,21.47
2018-11-11T18:22:04.634Z,22.80
2018-11-11T18:24:34.779Z,21.80
2018-11-11T18:27:05.188Z,21.93
2018-11-11T18:29:35.358Z,21.03
2018-11-11T18:32:06.870Z,22.57
2018-11-11T18:34:37.209Z,21.13
2018-11-11T18:37:07.322Z,22.53
2018-11-11T18:39:37.504Z,23.03
2018-11-11T18:42:07.706Z,21.40
2018-11-11T18:44:38.060Z,22.33
2018-11-11T18:47:08.412Z,21.13
2018-11-11T18:49:38.623Z,21.17
2018-11-11T18:52:08.816Z,22.03
2018-11-11T18:54:39.022Z,22.50
2018-11-11T18:57:09.352Z,22.17
2018-11-11T18:59:40.397Z,25.40
2018-11-11T19:02:10.580Z,23.30
2018-11-11T19:04:40.768Z,23.47
2018-11-11T19:07:12.028Z,21.80
2018-11-11T19:09:42.237Z,21.83
2018-11-11T19:12:12.420Z,21.97
2018-11-11T19:14:42.562Z,22.90
2018-11-11T19:17:12.772Z,23.00
2018-11-11T19:19:43.011Z,23.00
2018-11-11T19:22:13.534Z,23.33
2018-11-11T19:24:47.146Z,22.57
2018-11-11T19:27:17.283Z,23.80
2018-11-11T19:29:47.589Z,22.37
2018-11-11T19:32:17.782Z,23.73
2018-11-11T19:34:47.998Z,24.30
2018-11-11T19:37:18.110Z,23.07
2018-11-11T19:39:48.330Z,23.50
2018-11-11T19:42:18.732Z,24.07
2018-11-11T19:44:49.011Z,24.10
2018-11-11T19:47:19.513Z,23.87
2018-11-11T19:49:50.708Z,22.27
2018-11-11T19:52:20.936Z,23.13
2018-11-11T19:54:51.124Z,24.90
2018-11-11T19:57:21.376Z,24.10
2018-11-11T19:59:51.702Z,22.83
2018-11-11T20:02:21.996Z,22.77
2018-11-11T20:04:52.097Z,23.57
2018-11-11T20:07:22.489Z,23.80
2018-11-11T20:09:52.656Z,25.73
2018-11-11T20:12:23.082Z,25.23
2018-11-11T20:14:53.310Z,24.27
2018-11-11T20:17:23.513Z,23.27
2018-11-11T20:19:54.096Z,24.60
2018-11-11T20:22:24.275Z,27.73
2018-11-11T20:24:54.541Z,25.27
2018-11-11T20:27:24.953Z,24.27
2018-11-11T20:29:55.210Z,23.33
2018-11-11T20:32:25.411Z,24.30
2018-11-11T20:34:55.920Z,23.97
2018-11-11T20:37:26.297Z,22.57
2018-11-11T20:42:53.382Z,22.13
2018-11-11T20:45:25.490Z,24.23
2018-11-11T20:47:55.638Z,23.53
2018-11-11T20:50:27.079Z,23.83
2018-11-11T20:52:58.782Z,21.10
2018-11-11T20:55:30.265Z,22.33
2018-11-11T20:58:00.637Z,23.23
2018-11-11T21:00:33.058Z,21.30
2018-11-11T21:03:03.631Z,21.07
2018-11-11T21:05:33.878Z,21.83
2018-11-11T21:08:05.281Z,20.70
2018-11-11T21:10:37.504Z,20.07
2018-11-11T21:26:41.315Z,20.13
2018-11-11T21:29:11.480Z,20.23
2018-11-11T21:31:41.658Z,21.70
2018-11-11T21:34:11.943Z,20.00
2018-11-11T21:36:42.125Z,20.97
2018-11-11T21:39:14.132Z,20.40
2018-11-11T21:41:44.669Z,20.97
2018-11-11T21:44:14.857Z,21.40
2018-11-11T21:46:45.713Z,21.37
2018-11-11T21:49:16.911Z,20.60
2018-11-11T21:51:48.620Z,20.90
2018-11-11T21:54:19.191Z,19.20
2018-11-11T21:56:49.364Z,19.93
2018-11-11T21:59:20.383Z,19.53
2018-11-11T22:01:50.499Z,27.67
2018-11-11T22:04:20.683Z,22.50
2018-11-11T22:06:51.344Z,23.50
2018-11-11T22:09:21.757Z,26.13
2018-11-11T22:11:52.075Z,25.87
2018-11-11T22:14:22.197Z,25.07
2018-11-11T22:16:52.410Z,20.73
2018-11-11T22:19:24.758Z,21.80
2018-11-11T22:21:54.887Z,23.03
2018-11-11T22:24:25.093Z,21.13
2018-11-11T22:26:57.147Z,22.90
2018-11-11T22:29:27.356Z,23.57
2018-11-11T22:31:58.277Z,28.83
2018-11-11T22:34:28.399Z,27.13
2018-11-11T22:36:58.550Z,24.23
2018-11-11T22:39:28.714Z,25.87
2018-11-11T22:41:58.875Z,24.47
2018-11-11T22:44:28.990Z,24.47
2018-11-11T22:46:59.185Z,23.00
2018-11-11T22:49:29.350Z,21.27
2018-11-11T22:51:59.502Z,23.37
2018-11-11T22:54:29.571Z,20.90
2018-11-11T22:56:59.694Z,21.03
2018-11-11T22:59:29.810Z,20.07
2018-11-11T23:02:00.054Z,19.43
2018-11-11T23:04:30.239Z,19.20
2018-11-11T23:07:01.549Z,19.47
2018-11-11T23:09:32.061Z,19.50
2018-11-11T23:12:02.266Z,18.80
2018-11-11T23:14:32.354Z,21.77
2018-11-11T23:17:02.430Z,18.53
2018-11-11T23:19:32.502Z,19.37
2018-11-11T23:22:02.730Z,19.63
2018-11-11T23:24:32.810Z,18.47
2018-11-11T23:27:03.236Z,16.90
2018-11-11T23:29:39.864Z,18.93
2018-11-11T23:32:09.974Z,18.50
2018-11-11T23:34:40.136Z,20.70
2018-11-11T23:37:10.361Z,23.90
2018-11-11T23:39:40.410Z,25.33
2018-11-11T23:42:10.580Z,22.93
2018-11-11T23:44:40.728Z,25.63
2018-11-11T23:47:10.899Z,24.00
2018-11-11T23:49:41.001Z,23.87
2018-11-11T23:52:11.131Z,24.10
2018-11-11T23:54:41.270Z,23.20
2018-11-11T23:57:11.492Z,24.00
2018-11-11T23:59:43.871Z,27.03
